Ketchikan International Airport
PAKT : now visible

Airfield :











YOU CAN JOIN US ON...

 
LOGIN :

Register | Disclaimer

   EN    FR    IT 

 









Legend :    VFR   Marginal VFR   IFR   Intensive IFR   Very Intensive IFR
Visi :
Ceiling :
>= 8 km
>= 3000ft
5 to 8 km
1000 to 3000 ft
1500m to 5 km
500 to 1000 ft
800 to 1500m
200 to 500 ft
< 800m
< 200 ft
Symbols :   Thunderstorms  Fog  Heavy snow  Heavy precipitations  Wind > 20 kt






- Airport Elevation : 89 ft
- IATA code : KTN


PAKT - Ketchikan International

CURRENT METAR :
  • 090153Z 00000KT 10SM FEW008 M01/M01 A3019 RMK HARBOR WND VRB03KT

EXPIRED METARs :
  • 090053Z 00000KT 10SM CLR 00/M01 A3020 RMK SLP227 HARBOR WND VRB03KT T00001006 VIA AUTODIAL
  • 082353Z 00000KT 10SM CLR 00/M01 A3019 RMK HARBOR WND VRB03KT

TAF PAKT
Valid from the 09 at 00:00 until the 10 at 00:00 UTC


082338Z 0900/0924 14004KT P6SM SCT030
FM090900 13005KT 6SM BR SCT005
FM091600 13009KT P6SM SKC WS020/14030KT AMD NOT SKED



MET'MAP, your aeronautical weather chart ! - Copyright ORBIFLY December 2007 - Disclaimer

ORBIFLY MET'MAP TEAM :

Programming & Development : Alexandra Zaïnal
Concept & original design : Baudouin d'Aumeries
Assistance for programming : Marc-Olivier Méhu
Technical & hardware support : Manuel Goepfert

Contact : metmap@orbifly.com




SOURCES & CREDITS :

   NOAA       Earth
Advisory